Die Wetterstation in Yach-Rauchengrund 678m NN
Wetterdaten: aktuell Montag, 20.05.2024 20:45
Datum Zeit Temp.A. T Stall Temp5 Temp 5 Temp. A. min Temp. A. max Feuchte A. Luftdruck Regen Wind Richtung Richtung Sonnenschein Solar Taupunkt Windchill Windben Empfang
20.05.2024 20:45 16,5 C 18,9 C 0,0 C 0,0 C 16,4 C 16,5 C 65 % 1007,3 hPa 0,0 mm 15,1 km/h (3 Bft) N-NW 327 0 min 12 W/m 9,9 C 13,0 C 29,0 km/h (5 Bft) 97 %
20.05.2024 20:40 16,5 C 18,3 C 0,0 C 0,0 C 16,5 C 16,6 C 64 % 1007,5 hPa 0,0 mm 13,8 km/h (3 Bft) N-NW 332 0 min 18 W/m 9,7 C 13,4 C 24,1 km/h (4 Bft) 97 %
20.05.2024 20:35 16,6 C 18,9 C 0,0 C 0,0 C 16,6 C 16,7 C 64 % 1007,5 hPa 0,0 mm 7,9 km/h (2 Bft) N-NO 17 0 min 19 W/m 9,8 C 15,8 C 17,7 km/h (3 Bft) 97 %
20.05.2024 20:30 16,7 C 18,9 C 0,0 C 0,0 C 16,7 C 16,8 C 64 % 1007,3 hPa 0,0 mm 10,2 km/h (2 Bft) N 10 0 min 25 W/m 9,9 C 14,9 C 22,5 km/h (4 Bft) 99 %
20.05.2024 20:25 16,8 C 19,4 C 0,0 C 0,0 C 16,8 C 16,8 C 64 % 1007,4 hPa 0,0 mm 7,0 km/h (2 Bft) O-NO 59 0 min 32 W/m 10,0 C 16,5 C 22,5 km/h (4 Bft) 99 %
20.05.2024 20:20 16,8 C 19,4 C 0,0 C 0,0 C 16,8 C 17,0 C 64 % 1007,3 hPa 0,0 mm 6,2 km/h (2 Bft) N 349 0 min 37 W/m 10,0 C 16,8 C 17,7 km/h (3 Bft) 100 %
20.05.2024 20:15 17,0 C 19,4 C 0,0 C 0,0 C 17,0 C 17,1 C 64 % 1007,5 hPa 0,2 mm 4,4 km/h (1 Bft) NO 42 0 min 46 W/m 10,1 C 17,0 C 16,1 km/h (3 Bft) 100 %
20.05.2024 20:10 17,1 C 20,0 C 0,0 C 0,0 C 17,1 C 17,2 C 64 % 1007,3 hPa 0,0 mm 5,3 km/h (1 Bft) NO 48 0 min 51 W/m 10,2 C 17,1 C 14,5 km/h (3 Bft) 100 %
20.05.2024 20:05 17,2 C 19,4 C 0,0 C 0,0 C 17,2 C 17,3 C 62 % 1007,1 hPa 0,0 mm 4,9 km/h (1 Bft) O-NO 78 0 min 54 W/m 9,9 C 17,2 C 16,1 km/h (3 Bft) 100 %
20.05.2024 20:00 17,3 C 19,4 C 0,0 C 0,0 C 17,3 C 17,4 C 64 % 1007,7 hPa 0,0 mm 1,5 km/h (1 Bft) N-NO 23 0 min 56 W/m 10,4 C 17,3 C 9,7 km/h (2 Bft) 100 %
20.05.2024 19:55 17,4 C 19,4 C 0,0 C 0,0 C 17,4 C 17,5 C 63 % 1007,8 hPa 0,0 mm 6,3 km/h (2 Bft) N 360 0 min 62 W/m 10,3 C 17,4 C 17,7 km/h (3 Bft) 99 %
20.05.2024 19:50 17,5 C 19,4 C 0,0 C 0,0 C 17,5 C 17,6 C 63 % 1007,8 hPa 0,0 mm 6,9 km/h (2 Bft) N-NW 335 0 min 67 W/m 10,4 C 17,3 C 20,9 km/h (4 Bft) 99 %
20.05.2024 19:45 17,6 C 20,0 C 0,0 C 0,0 C 17,6 C 17,6 C 64 % 1007,7 hPa 0,0 mm 2,2 km/h (1 Bft) SO 126 0 min 63 W/m 10,7 C 17,6 C 17,7 km/h (3 Bft) 97 %
20.05.2024 19:40 17,6 C 20,0 C 0,0 C 0,0 C 17,5 C 17,6 C 66 % 1007,7 hPa 0,0 mm 2,8 km/h (1 Bft) O-NO 64 0 min 76 W/m 11,2 C 17,6 C 17,7 km/h (3 Bft) 96 %
20.05.2024 19:35 17,5 C 20,0 C 0,0 C 0,0 C 17,3 C 17,5 C 68 % 1007,6 hPa 0,0 mm 1,2 km/h (1 Bft) O-NO 57 0 min 107 W/m 11,5 C 17,5 C 17,7 km/h (3 Bft) 98 %
20.05.2024 19:30 17,3 C 20,0 C 0,0 C 0,0 C 17,2 C 17,3 C 66 % 1007,7 hPa 0,0 mm 1,9 km/h (1 Bft) N 355 0 min 127 W/m 10,9 C 17,3 C 17,7 km/h (3 Bft) 97 %
20.05.2024 19:25 17,2 C 20,0 C 0,0 C 0,0 C 17,1 C 17,2 C 67 % 1007,7 hPa 0,0 mm 3,8 km/h (1 Bft) N-NW 334 0 min 114 W/m 11,0 C 17,2 C 14,5 km/h (3 Bft) 97 %
20.05.2024 19:20 17,1 C 20,0 C 0,0 C 0,0 C 17,0 C 17,1 C 70 % 1007,7 hPa 0,0 mm 4,0 km/h (1 Bft) W-NW 296 0 min 113 W/m 11,6 C 17,1 C 14,5 km/h (3 Bft) 98 %
20.05.2024 19:15 17,0 C 20,6 C 0,0 C 0,0 C 16,9 C 17,0 C 74 % 1007,7 hPa 0,0 mm 0,0 km/h (0 Bft) N-NO 12 0 min 148 W/m 12,3 C 17,0 C 0,0 km/h (0 Bft) 97 %
20.05.2024 19:10 16,9 C 20,6 C 0,0 C 0,0 C 16,9 C 17,1 C 71 % 1007,8 hPa 0,0 mm 3,4 km/h (1 Bft) O-NO 61 0 min 144 W/m 11,6 C 16,9 C 14,5 km/h (3 Bft) 97 %
20.05.2024 19:05 17,1 C 20,6 C 0,0 C 0,0 C 17,1 C 17,3 C 77 % 1007,6 hPa 0,0 mm 1,3 km/h (1 Bft) NW 323 0 min 149 W/m 13,0 C 17,1 C 9,7 km/h (2 Bft) 98 %
20.05.2024 19:00 17,3 C 20,6 C 0,0 C 0,0 C 17,3 C 17,5 C 79 % 1007,4 hPa 0,0 mm 0,2 km/h (0 Bft) NW 316 0 min 153 W/m 13,6 C 17,3 C 3,2 km/h (1 Bft) 97 %
20.05.2024 18:55 17,5 C 21,1 C 0,0 C 0,0 C 17,5 C 17,7 C 80 % 1007,7 hPa 0,0 mm 0,0 km/h (0 Bft) O-NO 78 0 min 142 W/m 14,0 C 17,5 C 0,0 km/h (0 Bft) 98 %
20.05.2024 18:50 17,7 C 21,1 C 0,0 C 0,0 C 17,7 C 17,8 C 80 % 1007,8 hPa 0,0 mm 0,0 km/h (0 Bft) O-NO 72 0 min 141 W/m 14,2 C 17,7 C 0,0 km/h (0 Bft) 97 %
20.05.2024 18:45 17,8 C 21,1 C 0,0 C 0,0 C 17,7 C 17,8 C 80 % 1007,7 hPa 0,0 mm 0,0 km/h (0 Bft) O-NO 72 0 min 144 W/m 14,3 C 17,8 C 0,0 km/h (0 Bft) 95 %
20.05.2024 18:40 17,7 C 21,1 C 0,0 C 0,0 C 17,7 C 17,8 C 78 % 1007,7 hPa 0,0 mm 0,0 km/h (0 Bft) O-NO 72 0 min 179 W/m 13,8 C 17,7 C 1,6 km/h (1 Bft) 97 %
20.05.2024 18:35 17,8 C 21,1 C 0,0 C 0,0 C 17,7 C 17,8 C 80 % 1007,7 hPa 0,0 mm 0,0 km/h (0 Bft) S 187 0 min 192 W/m 14,3 C 17,8 C 0,0 km/h (0 Bft) 95 %
20.05.2024 18:30 17,7 C 21,1 C 0,0 C 0,0 C 17,7 C 17,7 C 80 % 1007,8 hPa 0,0 mm 0,0 km/h (0 Bft) S 187 0 min 183 W/m 14,2 C 17,7 C 0,0 km/h (0 Bft) 97 %
20.05.2024 18:25 17,7 C 21,1 C 0,0 C 0,0 C 17,6 C 17,7 C 80 % 1007,8 hPa 0,0 mm 0,0 km/h (0 Bft) S 185 5 min 274 W/m 14,2 C 17,7 C 1,6 km/h (1 Bft) 97 %
20.05.2024 18:20 17,7 C 21,1 C 0,0 C 0,0 C 17,7 C 17,7 C 81 % 1007,7 hPa 0,0 mm 0,0 km/h (0 Bft) S 185 5 min 380 W/m 14,4 C 17,7 C 0,0 km/h (0 Bft) 99 %
20.05.2024 18:15 17,7 C 21,1 C 0,0 C 0,0 C 17,5 C 17,7 C 81 % 1007,7 hPa 0,0 mm 0,0 km/h (0 Bft) S 175 5 min 383 W/m 14,4 C 17,7 C 0,0 km/h (0 Bft) 99 %
20.05.2024 18:10 17,5 C 21,1 C 0,0 C 0,0 C 17,3 C 17,5 C 80 % 1007,7 hPa 0,0 mm 0,0 km/h (0 Bft) S 175 5 min 388 W/m 14,0 C 17,5 C 0,0 km/h (0 Bft) 100 %
20.05.2024 18:05 17,3 C 21,1 C 0,0 C 0,0 C 17,2 C 17,3 C 80 % 1007,7 hPa 0,0 mm 0,0 km/h (0 Bft) S 174 5 min 436 W/m 13,8 C 17,3 C 1,6 km/h (1 Bft) 100 %
20.05.2024 18:00 17,2 C 21,1 C 0,0 C 0,0 C 16,9 C 17,2 C 81 % 1007,8 hPa 0,0 mm 0,0 km/h (0 Bft) S 174 5 min 397 W/m 13,9 C 17,2 C 0,0 km/h (0 Bft) 99 %
20.05.2024 17:55 17,1 C 21,1 C 0,0 C 0,0 C 17,0 C 17,1 C 81 % 1007,9 hPa 0,0 mm 0,0 km/h (0 Bft) S 174 5 min 396 W/m 13,8 C 17,1 C 0,0 km/h (0 Bft) 100 %
20.05.2024 17:50 17,0 C 21,1 C 0,0 C 0,0 C 16,8 C 17,0 C 81 % 1008,0 hPa 0,0 mm 0,0 km/h (0 Bft) S 174 5 min 334 W/m 13,7 C 17,0 C 0,0 km/h (0 Bft) 99 %
20.05.2024 17:45 16,9 C 21,1 C 0,0 C 0,0 C 16,9 C 17,2 C 82 % 1008,1 hPa 0,0 mm 0,0 km/h (0 Bft) S 174 5 min 345 W/m 13,8 C 16,9 C 0,0 km/h (0 Bft) 100 %
20.05.2024 17:40 17,2 C 21,1 C 0,0 C 0,0 C 16,9 C 17,2 C 81 % 1008,1 hPa 0,0 mm 0,0 km/h (0 Bft) S 174 5 min 345 W/m 13,9 C 17,2 C 0,0 km/h (0 Bft) 98 %
20.05.2024 17:35 16,9 C 21,1 C 0,0 C 0,0 C 16,8 C 16,9 C 79 % 1008,4 hPa 0,0 mm 0,0 km/h (0 Bft) S 174 5 min 355 W/m 13,2 C 16,9 C 0,0 km/h (0 Bft) 98 %
20.05.2024 17:30 16,9 C 20,6 C 0,0 C 0,0 C 16,7 C 16,9 C 82 % 1008,5 hPa 0,0 mm 0,0 km/h (0 Bft) S 174 5 min 371 W/m 13,8 C 16,9 C 0,0 km/h (0 Bft) 98 %
20.05.2024 17:25 16,7 C 20,6 C 0,0 C 0,0 C 16,4 C 16,7 C 82 % 1008,6 hPa 0,0 mm 0,0 km/h (0 Bft) S 174 5 min 443 W/m 13,6 C 16,7 C 0,0 km/h (0 Bft) 99 %
20.05.2024 17:20 16,4 C 20,6 C 0,0 C 0,0 C 16,4 C 16,7 C 82 % 1008,6 hPa 0,0 mm 0,0 km/h (0 Bft) S 174 5 min 436 W/m 13,3 C 16,4 C 0,0 km/h (0 Bft) 100 %
20.05.2024 17:15 16,7 C 20,6 C 0,0 C 0,0 C 16,0 C 16,7 C 81 % 1008,6 hPa 0,0 mm 0,0 km/h (0 Bft) S 174 5 min 490 W/m 13,4 C 16,7 C 0,0 km/h (0 Bft) 97 %
20.05.2024 17:10 16,0 C 20,6 C 0,0 C 0,0 C 15,3 C 16,0 C 82 % 1008,7 hPa 0,0 mm 0,0 km/h (0 Bft) S 174 5 min 468 W/m 12,9 C 16,0 C 0,0 km/h (0 Bft) 100 %
20.05.2024 17:05 15,3 C 20,6 C 0,0 C 0,0 C 14,9 C 15,3 C 78 % 1008,8 hPa 0,0 mm 0,0 km/h (0 Bft) S 174 5 min 550 W/m 11,5 C 15,3 C 0,0 km/h (0 Bft) 100 %
20.05.2024 17:00 14,9 C 20,6 C 0,0 C 0,0 C 14,8 C 14,9 C 75 % 1009,0 hPa 0,0 mm 0,0 km/h (0 Bft) S 174 0 min 330 W/m 10,5 C 14,9 C 0,0 km/h (0 Bft) 100 %
20.05.2024 16:55 14,9 C 20,6 C 0,0 C 0,0 C 14,8 C 14,9 C 75 % 1009,0 hPa 0,0 mm 0,0 km/h (0 Bft) S 174 0 min 250 W/m 10,5 C 14,9 C 0,0 km/h (0 Bft) 100 %
20.05.2024 16:50 14,8 C 20,6 C 0,0 C 0,0 C 14,5 C 14,8 C 74 % 1009,0 hPa 0,0 mm 0,0 km/h (0 Bft) S 174 0 min 302 W/m 10,2 C 14,8 C 0,0 km/h (0 Bft) 99 %
20.05.2024 16:45 14,5 C 20,6 C 0,0 C 0,0 C 14,4 C 14,5 C 75 % 1009,2 hPa 0,0 mm 0,0 km/h (0 Bft) S 174 0 min 325 W/m 10,1 C 14,5 C 0,0 km/h (0 Bft) 100 %
20.05.2024 16:40 14,4 C 20,6 C 0,0 C 0,0 C 14,4 C 14,5 C 76 % 1009,2 hPa 0,0 mm 0,0 km/h (0 Bft) S 174 0 min 343 W/m 10,2 C 14,4 C 0,0 km/h (0 Bft) 98 %
20.05.2024 16:35 14,5 C 20,6 C 0,0 C 0,0 C 14,5 C 14,7 C 76 % 1009,3 hPa 0,0 mm 0,0 km/h (0 Bft) S 174 0 min 301 W/m 10,3 C 14,5 C 0,0 km/h (0 Bft) 97 %
20.05.2024 16:30 14,7 C 20,6 C 0,0 C 0,0 C 14,7 C 14,8 C 75 % 1009,2 hPa 0,0 mm 0,0 km/h (0 Bft) S 174 0 min 315 W/m 10,3 C 14,7 C 0,0 km/h (0 Bft) 97 %
20.05.2024 16:25 14,7 C 20,6 C 0,0 C 0,0 C 14,7 C 14,8 C 76 % 1009,3 hPa 0,0 mm 0,0 km/h (0 Bft) S 174 0 min 304 W/m 10,5 C 14,7 C 0,0 km/h (0 Bft) 98 %
20.05.2024 16:20 14,8 C 21,1 C 0,0 C 0,0 C 14,8 C 15,0 C 76 % 1009,3 hPa 0,0 mm 0,0 km/h (0 Bft) S 174 0 min 243 W/m 10,6 C 14,8 C 1,6 km/h (1 Bft) 100 %
20.05.2024 16:15 15,0 C 21,1 C 0,0 C 0,0 C 15,0 C 15,2 C 76 % 1009,3 hPa 0,0 mm 0,0 km/h (0 Bft) S 176 0 min 197 W/m 10,8 C 15,0 C 0,0 km/h (0 Bft) 100 %
20.05.2024 16:10 15,2 C 21,1 C 0,0 C 0,0 C 15,2 C 15,2 C 76 % 1009,4 hPa 0,2 mm 0,0 km/h (0 Bft) S 176 0 min 156 W/m 11,0 C 15,2 C 0,0 km/h (0 Bft) 99 %
20.05.2024 16:05 15,2 C 21,1 C 0,0 C 0,0 C 15,2 C 15,2 C 75 % 1009,4 hPa 0,0 mm 0,0 km/h (0 Bft) S 176 0 min 141 W/m 10,8 C 15,2 C 0,0 km/h (0 Bft) 100 %
20.05.2024 16:00 15,2 C 21,1 C 0,0 C 0,0 C 15,1 C 15,2 C 75 % 1009,4 hPa 0,0 mm 0,0 km/h (0 Bft) S 176 0 min 181 W/m 10,8 C 15,2 C 0,0 km/h (0 Bft) 99 %
20.05.2024 15:55 15,1 C 20,6 C 0,0 C 0,0 C 14,9 C 15,1 C 75 % 1009,3 hPa 0,0 mm 0,0 km/h (0 Bft) S 176 0 min 244 W/m 10,7 C 15,1 C 1,6 km/h (1 Bft) 100 %
20.05.2024 15:50 14,9 C 20,6 C 0,0 C 0,0 C 14,7 C 14,9 C 76 % 1009,2 hPa 0,0 mm 0,0 km/h (0 Bft) S 176 0 min 302 W/m 10,7 C 14,9 C 0,0 km/h (0 Bft) 99 %
20.05.2024 15:45 14,7 C 20,6 C 0,0 C 0,0 C 14,6 C 14,7 C 77 % 1009,3 hPa 0,0 mm 0,6 km/h (0 Bft) S 176 0 min 272 W/m 10,7 C 14,7 C 3,2 km/h (1 Bft) 100 %
20.05.2024 15:40 14,6 C 20,6 C 0,0 C 0,0 C 14,6 C 14,7 C 78 % 1009,5 hPa 0,0 mm 0,8 km/h (0 Bft) S 175 0 min 304 W/m 10,8 C 14,6 C 6,4 km/h (2 Bft) 98 %
20.05.2024 15:35 14,7 C 20,6 C 0,0 C 0,0 C 14,7 C 14,7 C 79 % 1009,6 hPa 0,0 mm 0,0 km/h (0 Bft) S-SO 167 0 min 243 W/m 11,1 C 14,7 C 0,0 km/h (0 Bft) 98 %
20.05.2024 15:30 14,7 C 20,6 C 0,0 C 0,0 C 14,7 C 14,8 C 80 % 1009,6 hPa 0,0 mm 0,0 km/h (0 Bft) S-SO 166 0 min 227 W/m 11,3 C 14,7 C 0,0 km/h (0 Bft) 97 %
20.05.2024 15:25 14,8 C 20,6 C 0,0 C 0,0 C 14,8 C 14,9 C 81 % 1009,6 hPa 0,0 mm 0,0 km/h (0 Bft) S-SO 166 0 min 250 W/m 11,6 C 14,8 C 0,0 km/h (0 Bft) 98 %
20.05.2024 15:20 14,9 C 21,1 C 0,0 C 0,0 C 14,9 C 15,7 C 82 % 1009,8 hPa 0,0 mm 0,6 km/h (0 Bft) S-SO 166 0 min 244 W/m 11,9 C 14,9 C 8,0 km/h (2 Bft) 99 %
20.05.2024 15:15 15,7 C 21,1 C 0,0 C 0,0 C 15,7 C 16,1 C 82 % 1009,9 hPa 0,0 mm 1,2 km/h (1 Bft) S 175 0 min 236 W/m 12,6 C 15,7 C 8,0 km/h (2 Bft) 100 %
20.05.2024 15:10 16,1 C 21,1 C 0,0 C 0,0 C 16,1 C 16,5 C 82 % 1009,7 hPa 0,6 mm 0,0 km/h (0 Bft) SW 218 0 min 128 W/m 13,0 C 16,1 C 0,0 km/h (0 Bft) 100 %
20.05.2024 15:05 16,5 C 21,1 C 0,0 C 0,0 C 16,5 C 17,1 C 81 % 1009,8 hPa 0,6 mm 0,0 km/h (0 Bft) SW 219 0 min 90 W/m 13,2 C 16,5 C 1,6 km/h (1 Bft) 100 %
20.05.2024 15:00 17,1 C 21,1 C 0,0 C 0,0 C 17,1 C 17,4 C 81 % 1009,5 hPa 0,4 mm 0,0 km/h (0 Bft) N-NW 340 0 min 62 W/m 13,8 C 17,1 C 0,0 km/h (0 Bft) 100 %
20.05.2024 14:55 17,4 C 21,1 C 0,0 C 0,0 C 17,4 C 17,5 C 79 % 1009,4 hPa 0,6 mm 0,0 km/h (0 Bft) N-NW 341 0 min 65 W/m 13,7 C 17,4 C 0,0 km/h (0 Bft) 100 %
20.05.2024 14:50 17,5 C 21,1 C 0,0 C 0,0 C 17,5 C 17,5 C 76 % 1009,4 hPa 0,0 mm 0,0 km/h (0 Bft) N-NW 341 0 min 79 W/m 13,2 C 17,5 C 0,0 km/h (0 Bft) 100 %
20.05.2024 14:45 17,5 C 21,1 C 0,0 C 0,0 C 17,5 C 17,6 C 73 % 1009,4 hPa 0,0 mm 0,0 km/h (0 Bft) N-NW 341 0 min 111 W/m 12,6 C 17,5 C 0,0 km/h (0 Bft) 100 %
20.05.2024 14:40 17,6 C 20,6 C 0,0 C 0,0 C 17,6 C 17,6 C 73 % 1009,4 hPa 0,0 mm 0,0 km/h (0 Bft) N-NW 341 0 min 135 W/m 12,7 C 17,6 C 0,0 km/h (0 Bft) 97 %
20.05.2024 14:35 17,6 C 20,6 C 0,0 C 0,0 C 17,6 C 17,6 C 73 % 1009,4 hPa 0,0 mm 1,1 km/h (1 Bft) N-NW 341 0 min 181 W/m 12,7 C 17,6 C 6,4 km/h (2 Bft) 98 %
20.05.2024 14:30 17,6 C 21,1 C 0,0 C 0,0 C 17,6 C 17,8 C 72 % 1009,4 hPa 0,0 mm 0,0 km/h (0 Bft) N-NW 341 0 min 232 W/m 12,5 C 17,6 C 1,6 km/h (1 Bft) 98 %
20.05.2024 14:25 17,8 C 20,6 C 0,0 C 0,0 C 17,8 C 17,9 C 73 % 1009,5 hPa 0,0 mm 0,0 km/h (0 Bft) N-NW 341 0 min 316 W/m 12,9 C 17,8 C 1,6 km/h (1 Bft) 97 %
20.05.2024 14:20 17,8 C 20,6 C 0,0 C 0,0 C 17,8 C 17,9 C 69 % 1009,5 hPa 0,0 mm 1,2 km/h (1 Bft) N-NW 341 0 min 243 W/m 12,0 C 17,8 C 8,0 km/h (2 Bft) 98 %
20.05.2024 14:15 17,9 C 20,6 C 0,0 C 0,0 C 17,9 C 18,0 C 71 % 1009,5 hPa 0,0 mm 1,4 km/h (1 Bft) N-NW 341 0 min 199 W/m 12,6 C 17,9 C 8,0 km/h (2 Bft) 97 %
20.05.2024 14:10 18,0 C 20,6 C 0,0 C 0,0 C 18,0 C 18,1 C 68 % 1009,7 hPa 0,0 mm 0,0 km/h (0 Bft) NW 315 0 min 206 W/m 12,0 C 18,0 C 0,0 km/h (0 Bft) 97 %
20.05.2024 14:05 18,1 C 21,1 C 0,0 C 0,0 C 18,1 C 18,2 C 70 % 1009,7 hPa 0,0 mm 0,0 km/h (0 Bft) W 267 0 min 200 W/m 12,5 C 18,1 C 1,6 km/h (1 Bft) 97 %
20.05.2024 14:00 18,1 C 21,1 C 0,0 C 0,0 C 18,1 C 18,2 C 71 % 1009,7 hPa 0,0 mm 0,0 km/h (0 Bft) W 267 0 min 181 W/m 12,8 C 18,1 C 0,0 km/h (0 Bft) 96 %
20.05.2024 13:55 18,1 C 21,1 C 0,0 C 0,0 C 18,1 C 18,2 C 70 % 1009,6 hPa 0,0 mm 0,0 km/h (0 Bft) W 275 0 min 169 W/m 12,5 C 18,1 C 1,6 km/h (1 Bft) 98 %
20.05.2024 13:50 18,2 C 21,1 C 0,0 C 0,0 C 18,1 C 18,2 C 71 % 1009,7 hPa 0,0 mm 0,3 km/h (0 Bft) W-SW 258 0 min 172 W/m 12,9 C 18,2 C 4,8 km/h (1 Bft) 97 %
20.05.2024 13:45 18,1 C 21,1 C 0,0 C 0,0 C 18,0 C 18,1 C 70 % 1009,8 hPa 0,0 mm 0,0 km/h (0 Bft) N-NO 18 0 min 186 W/m 12,5 C 18,1 C 0,0 km/h (0 Bft) 98 %
20.05.2024 13:40 18,0 C 20,6 C 0,0 C 0,0 C 18,0 C 18,1 C 68 % 1009,8 hPa 0,0 mm 0,0 km/h (0 Bft) N-NO 29 0 min 234 W/m 12,0 C 18,0 C 0,0 km/h (0 Bft) 96 %
20.05.2024 13:35 18,0 C 20,6 C 0,0 C 0,0 C 18,0 C 18,1 C 67 % 1009,8 hPa 0,0 mm 0,4 km/h (0 Bft) NO 50 0 min 246 W/m 11,8 C 18,0 C 4,8 km/h (1 Bft) 95 %
20.05.2024 13:30 18,1 C 20,6 C 0,0 C 0,0 C 17,9 C 18,1 C 68 % 1009,8 hPa 0,0 mm 0,8 km/h (0 Bft) O-SO 115 0 min 308 W/m 12,1 C 18,1 C 6,4 km/h (2 Bft) 96 %
20.05.2024 13:25 17,9 C 20,6 C 0,0 C 0,0 C 17,9 C 18,0 C 66 % 1009,9 hPa 0,0 mm 0,0 km/h (0 Bft) SW 229 5 min 501 W/m 11,5 C 17,9 C 0,0 km/h (0 Bft) 96 %
20.05.2024 13:20 17,9 C 20,6 C 0,0 C 0,0 C 17,8 C 18,0 C 70 % 1009,9 hPa 0,0 mm 0,3 km/h (0 Bft) SW 225 0 min 352 W/m 12,3 C 17,9 C 3,2 km/h (1 Bft) 98 %
20.05.2024 13:15 17,8 C 20,6 C 0,0 C 0,0 C 17,5 C 17,8 C 69 % 1010,0 hPa 0,0 mm 1,2 km/h (1 Bft) SW 236 0 min 411 W/m 12,0 C 17,8 C 6,4 km/h (2 Bft) 100 %
20.05.2024 13:10 17,5 C 20,0 C 0,0 C 0,0 C 17,5 C 17,7 C 67 % 1010,0 hPa 0,0 mm 0,0 km/h (0 Bft) W-NW 290 0 min 313 W/m 11,3 C 17,5 C 1,6 km/h (1 Bft) 99 %
20.05.2024 13:05 17,7 C 20,0 C 0,0 C 0,0 C 17,7 C 17,7 C 65 % 1010,0 hPa 0,0 mm 0,5 km/h (0 Bft) W-NW 290 0 min 301 W/m 11,0 C 17,7 C 6,4 km/h (2 Bft) 100 %
20.05.2024 13:00 17,7 C 19,4 C 0,0 C 0,0 C 17,7 C 17,9 C 69 % 1010,0 hPa 0,0 mm 1,2 km/h (1 Bft) N-NW 346 0 min 253 W/m 11,9 C 17,7 C 8,0 km/h (2 Bft) 100 %
20.05.2024 12:55 17,9 C 19,4 C 0,0 C 0,0 C 17,9 C 18,1 C 67 % 1010,0 hPa 0,0 mm 2,3 km/h (1 Bft) N-NW 346 0 min 264 W/m 11,7 C 17,9 C 9,7 km/h (2 Bft) 99 %
20.05.2024 12:50 18,1 C 19,4 C 0,0 C 0,0 C 18,0 C 18,2 C 68 % 1010,0 hPa 0,0 mm 8,2 km/h (2 Bft) N-NW 340 5 min 1083 W/m 12,1 C 17,3 C 19,3 km/h (3 Bft) 100 %
20.05.2024 12:45 18,0 C 18,9 C 0,0 C 0,0 C 17,9 C 18,0 C 70 % 1010,0 hPa 0,0 mm 5,8 km/h (2 Bft) N-NO 12 5 min 1004 W/m 12,4 C 18,0 C 11,3 km/h (2 Bft) 99 %
20.05.2024 12:40 17,9 C 19,4 C 0,0 C 0,0 C 17,7 C 17,9 C 71 % 1010,1 hPa 0,0 mm 2,9 km/h (1 Bft) N 355 5 min 1016 W/m 12,6 C 17,9 C 16,1 km/h (3 Bft) 98 %
20.05.2024 12:35 17,7 C 19,4 C 0,0 C 0,0 C 17,3 C 17,7 C 67 % 1010,1 hPa 0,0 mm 0,2 km/h (0 Bft) N 5 5 min 995 W/m 11,5 C 17,7 C 4,8 km/h (1 Bft) 97 %
20.05.2024 12:30 17,3 C 18,9 C 0,0 C 0,0 C 17,2 C 17,3 C 72 % 1010,2 hPa 0,0 mm 0,0 km/h (0 Bft) N 360 0 min 279 W/m 12,2 C 17,3 C 1,6 km/h (1 Bft) 98 %
20.05.2024 12:25 17,2 C 19,4 C 0,0 C 0,0 C 17,2 C 17,4 C 74 % 1010,2 hPa 0,0 mm 0,0 km/h (0 Bft) N 355 5 min 1072 W/m 12,5 C 17,2 C 0,0 km/h (0 Bft) 98 %
20.05.2024 12:20 17,4 C 18,9 C 0,0 C 0,0 C 17,4 C 17,5 C 70 % 1010,3 hPa 0,0 mm 5,4 km/h (2 Bft) N 349 0 min 178 W/m 11,9 C 17,4 C 14,5 km/h (3 Bft) 97 %
20.05.2024 12:15 17,4 C 18,9 C 0,0 C 0,0 C 17,3 C 17,4 C 73 % 1010,3 hPa 0,0 mm 0,5 km/h (0 Bft) N-NO 15 5 min 988 W/m 12,5 C 17,4 C 4,8 km/h (1 Bft) 100 %
20.05.2024 12:10 17,4 C 18,9 C 0,0 C 0,0 C 17,3 C 17,4 C 70 % 1010,3 hPa 0,0 mm 2,1 km/h (1 Bft) NO 34 5 min 976 W/m 11,9 C 17,4 C 8,0 km/h (2 Bft) 98 %
20.05.2024 12:05 17,3 C 18,9 C 0,0 C 0,0 C 17,2 C 17,3 C 69 % 1010,4 hPa 0,0 mm 2,6 km/h (1 Bft) N 5 5 min 970 W/m 11,6 C 17,3 C 9,7 km/h (2 Bft) 100 %
20.05.2024 12:00 17,3 C 18,9 C 0,0 C 0,0 C 17,3 C 17,4 C 69 % 1010,5 hPa 0,0 mm 3,7 km/h (1 Bft) N-NO 33 0 min 144 W/m 11,6 C 17,3 C 12,9 km/h (3 Bft) 99 %
20.05.2024 11:55 17,4 C 18,9 C 0,0 C 0,0 C 17,2 C 17,4 C 73 % 1010,4 hPa 0,0 mm 5,3 km/h (1 Bft) N-NW 348 5 min 911 W/m 12,5 C 17,4 C 11,3 km/h (2 Bft) 100 %
20.05.2024 11:50 17,2 C 18,3 C 0,0 C 0,0 C 17,1 C 17,3 C 72 % 1010,3 hPa 0,0 mm 4,1 km/h (1 Bft) N-NW 346 5 min 877 W/m 12,1 C 17,2 C 9,7 km/h (2 Bft) 100 %
20.05.2024 11:45 17,2 C 18,3 C 0,0 C 0,0 C 16,9 C 17,2 C 74 % 1010,4 hPa 0,0 mm 5,3 km/h (1 Bft) N 355 0 min 153 W/m 12,5 C 17,2 C 16,1 km/h (3 Bft) 100 %
20.05.2024 11:40 17,0 C 18,3 C 0,0 C 0,0 C 16,8 C 17,0 C 74 % 1010,2 hPa 0,0 mm 4,3 km/h (1 Bft) N-NW 346 5 min 877 W/m 12,3 C 17,0 C 11,3 km/h (2 Bft) 99 %
20.05.2024 11:35 16,8 C 18,3 C 0,0 C 0,0 C 16,7 C 16,8 C 75 % 1010,4 hPa 0,0 mm 1,7 km/h (1 Bft) N 350 5 min 898 W/m 12,3 C 16,8 C 8,0 km/h (2 Bft) 98 %
20.05.2024 11:30 16,7 C 18,3 C 0,0 C 0,0 C 16,6 C 16,8 C 72 % 1010,3 hPa 0,0 mm 8,2 km/h (2 Bft) N-NW 346 5 min 895 W/m 11,6 C 15,8 C 11,3 km/h (2 Bft) 97 %
20.05.2024 11:25 16,7 C 17,8 C 0,0 C 0,0 C 16,7 C 16,8 C 73 % 1010,4 hPa 0,0 mm 4,4 km/h (1 Bft) N-NW 346 0 min 267 W/m 11,8 C 16,7 C 11,3 km/h (2 Bft) 97 %
20.05.2024 11:20 16,8 C 17,8 C 0,0 C 0,0 C 16,8 C 16,9 C 72 % 1010,3 hPa 0,0 mm 2,6 km/h (1 Bft) N 9 0 min 176 W/m 11,7 C 16,8 C 11,3 km/h (2 Bft) 98 %
20.05.2024 11:15 16,9 C 17,8 C 0,0 C 0,0 C 16,8 C 16,9 C 73 % 1010,3 hPa 0,0 mm 2,0 km/h (1 Bft) N-NW 340 5 min 828 W/m 12,0 C 16,9 C 8,0 km/h (2 Bft) 100 %
20.05.2024 11:10 16,8 C 17,8 C 0,0 C 0,0 C 16,8 C 16,9 C 75 % 1010,2 hPa 0,0 mm 2,4 km/h (1 Bft) N-NW 338 5 min 893 W/m 12,3 C 16,8 C 9,7 km/h (2 Bft) 100 %
20.05.2024 11:05 16,9 C 17,8 C 0,0 C 0,0 C 16,8 C 16,9 C 74 % 1010,3 hPa 0,0 mm 2,6 km/h (1 Bft) N 349 5 min 826 W/m 12,2 C 16,9 C 9,7 km/h (2 Bft) 100 %
20.05.2024 11:00 16,9 C 17,8 C 0,0 C 0,0 C 16,8 C 16,9 C 75 % 1010,3 hPa 0,0 mm 5,3 km/h (1 Bft) N 350 5 min 803 W/m 12,4 C 16,9 C 11,3 km/h (2 Bft) 100 %
20.05.2024 10:55 16,8 C 17,8 C 0,0 C 0,0 C 16,6 C 16,8 C 76 % 1010,3 hPa 0,0 mm 2,8 km/h (1 Bft) N 355 5 min 810 W/m 12,5 C 16,8 C 9,7 km/h (2 Bft) 97 %
20.05.2024 10:50 16,6 C 17,8 C 0,0 C 0,0 C 16,5 C 16,7 C 75 % 1010,2 hPa 0,0 mm 1,5 km/h (1 Bft) N 355 5 min 793 W/m 12,1 C 16,6 C 8,0 km/h (2 Bft) 98 %
20.05.2024 10:45 16,5 C 17,8 C 0,0 C 0,0 C 16,4 C 16,5 C 75 % 1010,3 hPa 0,0 mm 4,3 km/h (1 Bft) N 355 5 min 784 W/m 12,1 C 16,5 C 11,3 km/h (2 Bft) 97 %
20.05.2024 10:40 16,4 C 17,2 C 0,0 C 0,0 C 16,3 C 16,4 C 74 % 1010,3 hPa 0,0 mm 6,5 km/h (2 Bft) N 5 5 min 870 W/m 11,8 C 16,4 C 11,3 km/h (2 Bft) 98 %
20.05.2024 10:35 16,3 C 17,2 C 0,0 C 0,0 C 16,2 C 16,3 C 75 % 1010,4 hPa 0,0 mm 6,2 km/h (2 Bft) N 355 5 min 956 W/m 11,9 C 16,3 C 11,3 km/h (2 Bft) 96 %
20.05.2024 10:30 16,2 C 16,7 C 0,0 C 0,0 C 16,1 C 16,2 C 75 % 1010,4 hPa 0,0 mm 3,8 km/h (1 Bft) N-NW 344 5 min 909 W/m 11,8 C 16,2 C 11,3 km/h (2 Bft) 96 %
20.05.2024 10:25 16,1 C 16,7 C 0,0 C 0,0 C 15,8 C 16,1 C 75 % 1010,4 hPa 0,0 mm 1,2 km/h (1 Bft) N-NW 348 5 min 489 W/m 11,7 C 16,1 C 6,4 km/h (2 Bft) 96 %
20.05.2024 10:20 15,8 C 16,7 C 0,0 C 0,0 C 15,7 C 15,8 C 74 % 1010,4 hPa 0,0 mm 0,2 km/h (0 Bft) N-NW 348 5 min 512 W/m 11,2 C 15,8 C 4,8 km/h (1 Bft) 93 %
20.05.2024 10:15 15,7 C 16,7 C 0,0 C 0,0 C 15,5 C 15,7 C 75 % 1010,5 hPa 0,0 mm 1,4 km/h (1 Bft) N-NW 348 5 min 1049 W/m 11,3 C 15,7 C 6,4 km/h (2 Bft) 97 %
20.05.2024 10:10 15,5 C 16,7 C 0,0 C 0,0 C 15,4 C 15,5 C 73 % 1010,6 hPa 0,0 mm 0,9 km/h (0 Bft) N-NW 342 5 min 603 W/m 10,7 C 15,5 C 6,4 km/h (2 Bft) 97 %
20.05.2024 10:05 15,4 C 16,7 C 0,0 C 0,0 C 15,4 C 15,4 C 74 % 1010,6 hPa 0,0 mm 0,7 km/h (0 Bft) N-NW 340 5 min 582 W/m 10,8 C 15,4 C 6,4 km/h (2 Bft) 97 %
20.05.2024 10:00 15,4 C 16,7 C 0,0 C 0,0 C 15,4 C 15,4 C 74 % 1010,4 hPa 0,0 mm 0,9 km/h (0 Bft) N-NW 340 5 min 636 W/m 10,8 C 15,4 C 6,4 km/h (2 Bft) 98 %
20.05.2024 09:55 15,4 C 16,7 C 0,0 C 0,0 C 15,3 C 15,4 C 75 % 1010,4 hPa 0,0 mm 0,8 km/h (0 Bft) N-NW 339 5 min 729 W/m 11,0 C 15,4 C 6,4 km/h (2 Bft) 97 %
20.05.2024 09:50 15,3 C 16,1 C 0,0 C 0,0 C 15,2 C 15,3 C 75 % 1010,4 hPa 0,0 mm 0,7 km/h (0 Bft) N-NW 339 5 min 754 W/m 10,9 C 15,3 C 6,4 km/h (2 Bft) 100 %
20.05.2024 09:45 15,2 C 16,1 C 0,0 C 0,0 C 15,1 C 15,2 C 76 % 1010,5 hPa 0,0 mm 0,5 km/h (0 Bft) N-NW 339 5 min 686 W/m 11,0 C 15,2 C 4,8 km/h (1 Bft) 100 %
20.05.2024 09:40 15,1 C 16,1 C 0,0 C 0,0 C 14,8 C 15,1 C 77 % 1010,5 hPa 0,0 mm 0,0 km/h (0 Bft) N 351 5 min 628 W/m 11,1 C 15,1 C 1,6 km/h (1 Bft) 100 %
20.05.2024 09:35 14,8 C 16,1 C 0,0 C 0,0 C 14,4 C 14,8 C 80 % 1010,5 hPa 0,0 mm 0,0 km/h (0 Bft) O-SO 113 5 min 608 W/m 11,4 C 14,8 C 0,0 km/h (0 Bft) 100 %
20.05.2024 09:30 14,4 C 15,6 C 0,0 C 0,0 C 14,1 C 14,4 C 81 % 1010,5 hPa 0,0 mm 0,0 km/h (0 Bft) O-SO 113 5 min 612 W/m 11,2 C 14,4 C 0,0 km/h (0 Bft) 100 %
20.05.2024 09:25 14,1 C 15,6 C 0,0 C 0,0 C 13,7 C 14,1 C 80 % 1010,7 hPa 0,0 mm 0,0 km/h (0 Bft) O-SO 113 5 min 438 W/m 10,7 C 14,1 C 0,0 km/h (0 Bft) 99 %
20.05.2024 09:20 13,7 C 15,6 C 0,0 C 0,0 C 13,2 C 13,7 C 80 % 1010,8 hPa 0,0 mm 0,0 km/h (0 Bft) O-SO 113 5 min 364 W/m 10,3 C 13,7 C 0,0 km/h (0 Bft) 97 %
20.05.2024 09:15 13,2 C 15,6 C 0,0 C 0,0 C 12,9 C 13,2 C 81 % 1010,8 hPa 0,0 mm 0,0 km/h (0 Bft) O-SO 114 5 min 693 W/m 10,0 C 13,2 C 0,0 km/h (0 Bft) 97 %
20.05.2024 09:10 12,9 C 15,6 C 0,0 C 0,0 C 12,7 C 12,9 C 82 % 1010,9 hPa 0,0 mm 0,0 km/h (0 Bft) O-SO 114 5 min 448 W/m 9,9 C 12,9 C 0,0 km/h (0 Bft) 98 %
20.05.2024 09:05 12,7 C 15,6 C 0,0 C 0,0 C 12,6 C 12,7 C 83 % 1010,9 hPa 0,0 mm 0,0 km/h (0 Bft) O-SO 114 5 min 383 W/m 9,9 C 12,7 C 0,0 km/h (0 Bft) 99 %
20.05.2024 09:00 12,7 C 15,6 C 0,0 C 0,0 C 12,5 C 12,7 C 83 % 1010,9 hPa 0,0 mm 0,0 km/h (0 Bft) O-SO 114 5 min 299 W/m 9,9 C 12,7 C 0,0 km/h (0 Bft) 100 %
20.05.2024 08:55 12,5 C 15,6 C 0,0 C 0,0 C 12,4 C 12,5 C 82 % 1010,8 hPa 0,0 mm 0,0 km/h (0 Bft) O-SO 114 5 min 318 W/m 9,5 C 12,5 C 0,0 km/h (0 Bft) 100 %
20.05.2024 08:50 12,4 C 15,0 C 0,0 C 0,0 C 12,4 C 12,4 C 82 % 1010,9 hPa 0,0 mm 0,0 km/h (0 Bft) SO 142 0 min 204 W/m 9,4 C 12,4 C 0,0 km/h (0 Bft) 100 %
20.05.2024 08:45 12,4 C 15,0 C 0,0 C 0,0 C 12,2 C 12,4 C 82 % 1010,8 hPa 0,0 mm 0,0 km/h (0 Bft) SO 142 0 min 248 W/m 9,4 C 12,4 C 0,0 km/h (0 Bft) 100 %
20.05.2024 08:40 12,2 C 15,0 C 0,0 C 0,0 C 11,9 C 12,2 C 83 % 1010,8 hPa 0,0 mm 0,0 km/h (0 Bft) SO 142 0 min 97 W/m 9,4 C 12,2 C 0,0 km/h (0 Bft) 99 %
20.05.2024 08:35 11,9 C 15,0 C 0,0 C 0,0 C 11,7 C 11,9 C 83 % 1011,1 hPa 0,0 mm 0,0 km/h (0 Bft) SO 142 5 min 438 W/m 9,1 C 11,9 C 0,0 km/h (0 Bft) 100 %
20.05.2024 08:30 11,7 C 15,0 C 0,0 C 0,0 C 11,4 C 11,7 C 83 % 1011,1 hPa 0,0 mm 0,0 km/h (0 Bft) SO 142 5 min 411 W/m 8,9 C 11,7 C 0,0 km/h (0 Bft) 99 %
20.05.2024 08:25 11,4 C 14,4 C 0,0 C 0,0 C 11,2 C 11,4 C 83 % 1011,1 hPa 0,0 mm 0,0 km/h (0 Bft) SO 142 5 min 396 W/m 8,6 C 11,4 C 0,0 km/h (0 Bft) 97 %
20.05.2024 08:20 11,2 C 14,4 C 0,0 C 0,0 C 10,9 C 11,2 C 83 % 1011,1 hPa 0,0 mm 0,0 km/h (0 Bft) SO 142 5 min 373 W/m 8,4 C 11,2 C 0,0 km/h (0 Bft) 97 %
20.05.2024 08:15 10,9 C 14,4 C 0,0 C 0,0 C 10,7 C 10,9 C 83 % 1011,1 hPa 0,0 mm 0,0 km/h (0 Bft) SO 142 5 min 350 W/m 8,1 C 10,9 C 0,0 km/h (0 Bft) 97 %
20.05.2024 08:10 10,7 C 14,4 C 0,0 C 0,0 C 10,4 C 10,7 C 83 % 1011,3 hPa 0,0 mm 0,0 km/h (0 Bft) SO 142 5 min 334 W/m 7,9 C 10,7 C 0,0 km/h (0 Bft) 97 %
20.05.2024 08:05 10,4 C 14,4 C 0,0 C 0,0 C 10,4 C 10,5 C 83 % 1011,3 hPa 0,0 mm 0,0 km/h (0 Bft) SO 142 5 min 318 W/m 7,6 C 10,4 C 0,0 km/h (0 Bft) 100 %
20.05.2024 08:00 10,4 C 14,4 C 0,0 C 0,0 C 10,3 C 10,4 C 83 % 1010,9 hPa 0,0 mm 0,0 km/h (0 Bft) SO 142 5 min 253 W/m 7,6 C 10,4 C 0,0 km/h (0 Bft) 100 %
20.05.2024 07:55 10,3 C 13,9 C 0,0 C 0,0 C 10,2 C 10,3 C 83 % 1010,9 hPa 0,0 mm 0,0 km/h (0 Bft) SO 142 0 min 86 W/m 7,5 C 10,3 C 0,0 km/h (0 Bft) 100 %
20.05.2024 07:50 10,2 C 13,9 C 0,0 C 0,0 C 10,2 C 10,2 C 83 % 1011,0 hPa 0,0 mm 0,0 km/h (0 Bft) SO 142 0 min 132 W/m 7,4 C 10,2 C 0,0 km/h (0 Bft) 100 %
20.05.2024 07:45 10,2 C 13,9 C 0,0 C 0,0 C 10,1 C 10,2 C 84 % 1011,1 hPa 0,0 mm 0,0 km/h (0 Bft) SO 142 0 min 40 W/m 7,6 C 10,2 C 0,0 km/h (0 Bft) 100 %
20.05.2024 07:40 10,1 C 13,9 C 0,0 C 0,0 C 9,9 C 10,1 C 84 % 1011,1 hPa 0,0 mm 0,0 km/h (0 Bft) SO 142 0 min 40 W/m 7,5 C 10,1 C 0,0 km/h (0 Bft) 100 %
20.05.2024 07:35 10,0 C 13,9 C 0,0 C 0,0 C 9,9 C 10,0 C 83 % 1011,0 hPa 0,0 mm 0,0 km/h (0 Bft) SO 142 0 min 127 W/m 7,2 C 10,0 C 0,0 km/h (0 Bft) 100 %
20.05.2024 07:30 9,9 C 13,9 C 0,0 C 0,0 C 9,8 C 9,9 C 83 % 1011,0 hPa 0,0 mm 0,0 km/h (0 Bft) SO 142 5 min 172 W/m 7,2 C 9,9 C 0,0 km/h (0 Bft) 100 %
20.05.2024 07:25 9,8 C 13,9 C 0,0 C 0,0 C 9,7 C 9,8 C 84 % 1011,0 hPa 0,0 mm 0,0 km/h (0 Bft) SO 142 0 min 76 W/m 7,2 C 9,8 C 0,0 km/h (0 Bft) 97 %
20.05.2024 07:20 9,7 C 13,9 C 0,0 C 0,0 C 9,7 C 9,7 C 84 % 1011,0 hPa 0,0 mm 0,0 km/h (0 Bft) SO 142 0 min 35 W/m 7,1 C 9,7 C 0,0 km/h (0 Bft) 97 %
20.05.2024 07:15 9,7 C 13,9 C 0,0 C 0,0 C 9,6 C 9,7 C 84 % 1011,0 hPa 0,0 mm 0,0 km/h (0 Bft) SO 142 0 min 47 W/m 7,1 C 9,7 C 0,0 km/h (0 Bft) 98 %
20.05.2024 07:10 9,6 C 13,9 C 0,0 C 0,0 C 9,6 C 9,6 C 84 % 1011,0 hPa 0,0 mm 0,0 km/h (0 Bft) SO 142 0 min 39 W/m 7,0 C 9,6 C 0,0 km/h (0 Bft) 98 %
20.05.2024 07:05 9,6 C 13,9 C 0,0 C 0,0 C 9,5 C 9,6 C 84 % 1011,1 hPa 0,0 mm 0,0 km/h (0 Bft) SO 142 0 min 26 W/m 7,0 C 9,6 C 0,0 km/h (0 Bft) 100 %
20.05.2024 07:00 9,5 C 13,9 C 0,0 C 0,0 C 9,4 C 9,6 C 83 % 1011,1 hPa 0,0 mm 0,0 km/h (0 Bft) SO 142 0 min 23 W/m 6,8 C 9,5 C 0,0 km/h (0 Bft) 100 %
20.05.2024 06:55 9,4 C 13,9 C 0,0 C 0,0 C 9,4 C 9,5 C 84 % 1010,8 hPa 0,0 mm 0,0 km/h (0 Bft) SO 142 0 min 26 W/m 6,8 C 9,4 C 0,0 km/h (0 Bft) 100 %
20.05.2024 06:50 9,4 C 13,9 C 0,0 C 0,0 C 9,4 C 9,4 C 84 % 1010,8 hPa 0,0 mm 0,0 km/h (0 Bft) SO 142 0 min 26 W/m 6,8 C 9,4 C 0,0 km/h (0 Bft) 100 %
20.05.2024 06:45 9,4 C 13,9 C 0,0 C 0,0 C 9,3 C 9,4 C 84 % 1010,9 hPa 0,0 mm 0,0 km/h (0 Bft) SO 142 0 min 28 W/m 6,8 C 9,4 C 0,0 km/h (0 Bft) 99 %
20.05.2024 06:40 9,4 C 13,9 C 0,0 C 0,0 C 9,3 C 9,4 C 84 % 1010,9 hPa 0,0 mm 0,0 km/h (0 Bft) SO 142 0 min 28 W/m 6,8 C 9,4 C 0,0 km/h (0 Bft) 100 %
20.05.2024 06:35 9,3 C 13,9 C 0,0 C 0,0 C 9,3 C 9,3 C 84 % 1010,9 hPa 0,0 mm 0,0 km/h (0 Bft) SO 142 0 min 25 W/m 6,7 C 9,3 C 0,0 km/h (0 Bft) 100 %
20.05.2024 06:30 9,3 C 13,9 C 0,0 C 0,0 C 9,3 C 9,3 C 84 % 1010,9 hPa 0,0 mm 0,0 km/h (0 Bft) SO 142 0 min 21 W/m 6,7 C 9,3 C 0,0 km/h (0 Bft) 98 %
20.05.2024 06:25 9,3 C 13,3 C 0,0 C 0,0 C 9,3 C 9,3 C 84 % 1010,9 hPa 0,0 mm 0,0 km/h (0 Bft) SO 142 0 min 19 W/m 6,7 C 9,3 C 0,0 km/h (0 Bft) 97 %
20.05.2024 06:20 9,3 C 13,3 C 0,0 C 0,0 C 9,3 C 9,3 C 84 % 1011,0 hPa 0,0 mm 0,0 km/h (0 Bft) SO 142 0 min 16 W/m 6,7 C 9,3 C 0,0 km/h (0 Bft) 98 %
20.05.2024 06:15 9,3 C 13,3 C 0,0 C 0,0 C 9,3 C 9,4 C 84 % 1010,9 hPa 0,0 mm 0,0 km/h (0 Bft) SO 142 0 min 14 W/m 6,7 C 9,3 C 0,0 km/h (0 Bft) 97 %
20.05.2024 06:10 9,4 C 13,3 C 0,0 C 0,0 C 9,4 C 9,4 C 84 % 1011,0 hPa 0,0 mm 0,0 km/h (0 Bft) SO 142 0 min 12 W/m 6,8 C 9,4 C 0,0 km/h (0 Bft) 99 %
20.05.2024 06:05 9,4 C 13,3 C 0,0 C 0,0 C 9,4 C 9,4 C 83 % 1011,0 hPa 0,0 mm 0,0 km/h (0 Bft) SO 142 0 min 11 W/m 6,7 C 9,4 C 0,0 km/h (0 Bft) 97 %
20.05.2024 06:00 9,4 C 13,3 C 0,0 C 0,0 C 9,4 C 9,4 C 83 % 1011,0 hPa 0,0 mm 0,0 km/h (0 Bft) SO 142 0 min 9 W/m 6,7 C 9,4 C 0,0 km/h (0 Bft) 99 %
20.05.2024 05:55 9,4 C 13,3 C 0,0 C 0,0 C 9,4 C 9,4 C 83 % 1011,0 hPa 0,0 mm 0,0 km/h (0 Bft) SO 142 0 min 7 W/m 6,7 C 9,4 C 0,0 km/h (0 Bft) 100 %
20.05.2024 05:50 9,4 C 13,3 C 0,0 C 0,0 C 9,4 C 9,4 C 83 % 1011,0 hPa 0,0 mm 0,0 km/h (0 Bft) SO 142 0 min 5 W/m 6,7 C 9,4 C 0,0 km/h (0 Bft) 99 %
20.05.2024 05:45 9,4 C 13,3 C 0,0 C 0,0 C 9,4 C 9,4 C 83 % 1011,0 hPa 0,0 mm 0,0 km/h (0 Bft) N 0 0 min 0 W/m 6,7 C 9,4 C 0,0 km/h (0 Bft) 100 %
20.05.2024 05:40 9,4 C 13,3 C 0,0 C 0,0 C 9,4 C 9,4 C 83 % 1011,0 hPa 0,0 mm 0,0 km/h (0 Bft) N 0 0 min 0 W/m 6,7 C 9,4 C 0,0 km/h (0 Bft) 100 %
20.05.2024 05:35 9,4 C 13,3 C 0,0 C 0,0 C 9,4 C 9,4 C 83 % 1011,0 hPa 0,0 mm 0,0 km/h (0 Bft) N 0 0 min 0 W/m 6,7 C 9,4 C 0,0 km/h (0 Bft) 100 %
20.05.2024 05:30 9,4 C 13,3 C 0,0 C 0,0 C 9,4 C 9,4 C 83 % 1010,9 hPa 0,0 mm 0,0 km/h (0 Bft) N 0 0 min 0 W/m 6,7 C 9,4 C 0,0 km/h (0 Bft) 100 %
20.05.2024 05:25 9,4 C 13,3 C 0,0 C 0,0 C 9,4 C 9,4 C 83 % 1010,9 hPa 0,0 mm 0,0 km/h (0 Bft) N 0 0 min 0 W/m 6,7 C 9,4 C 0,0 km/h (0 Bft) 99 %
20.05.2024 05:20 9,4 C 13,3 C 0,0 C 0,0 C 9,3 C 9,4 C 83 % 1011,0 hPa 0,0 mm 0,0 km/h (0 Bft) N 0 0 min 0 W/m 6,7 C 9,4 C 0,0 km/h (0 Bft) 100 %
20.05.2024 05:15 9,4 C 13,3 C 0,0 C 0,0 C 9,4 C 9,4 C 83 % 1011,1 hPa 0,0 mm 0,0 km/h (0 Bft) N 0 0 min 0 W/m 6,7 C 9,4 C 0,0 km/h (0 Bft) 96 %
20.05.2024 05:10 9,4 C 13,3 C 0,0 C 0,0 C 9,4 C 9,4 C 83 % 1011,0 hPa 0,0 mm 0,0 km/h (0 Bft) N 0 0 min 0 W/m 6,7 C 9,4 C 0,0 km/h (0 Bft) 91 %
20.05.2024 05:05 9,4 C 13,3 C 0,0 C 0,0 C 9,3 C 9,4 C 83 % 1011,0 hPa 0,0 mm 0,0 km/h (0 Bft) N 0 0 min 0 W/m 6,7 C 9,4 C 0,0 km/h (0 Bft) 90 %
20.05.2024 05:00 9,3 C 13,3 C 0,0 C 0,0 C 9,3 C 9,4 C 83 % 1010,8 hPa 0,0 mm 0,0 km/h (0 Bft) N 0 0 min 0 W/m 6,6 C 9,3 C 0,0 km/h (0 Bft) 96 %
20.05.2024 04:55 9,3 C 13,3 C 0,0 C 0,0 C 9,3 C 9,3 C 83 % 1010,9 hPa 0,0 mm 0,0 km/h (0 Bft) N 0 0 min 0 W/m 6,6 C 9,3 C 0,0 km/h (0 Bft) 99 %
20.05.2024 04:50 9,3 C 13,3 C 0,0 C 0,0 C 9,3 C 9,4 C 83 % 1010,9 hPa 0,0 mm 0,0 km/h (0 Bft) N 0 0 min 0 W/m 6,6 C 9,3 C 0,0 km/h (0 Bft) 99 %
20.05.2024 04:45 9,4 C 13,3 C 0,0 C 0,0 C 9,4 C 9,5 C 83 % 1010,9 hPa 0,0 mm 0,0 km/h (0 Bft) N 0 0 min 0 W/m 6,7 C 9,4 C 0,0 km/h (0 Bft) 100 %
20.05.2024 04:40 9,5 C 13,3 C 0,0 C 0,0 C 9,5 C 9,6 C 83 % 1010,9 hPa 0,0 mm 0,0 km/h (0 Bft) N 0 0 min 0 W/m 6,8 C 9,5 C 0,0 km/h (0 Bft) 100 %
20.05.2024 04:35 9,5 C 13,3 C 0,0 C 0,0 C 9,5 C 9,6 C 83 % 1010,9 hPa 0,0 mm 0,0 km/h (0 Bft) N 0 0 min 0 W/m 6,8 C 9,5 C 0,0 km/h (0 Bft) 100 %
20.05.2024 04:30 9,6 C 13,3 C 0,0 C 0,0 C 9,6 C 9,6 C 83 % 1010,9 hPa 0,0 mm 0,0 km/h (0 Bft) N 0 0 min 0 W/m 6,9 C 9,6 C 0,0 km/h (0 Bft) 99 %
20.05.2024 04:25 9,6 C 13,3 C 0,0 C 0,0 C 9,6 C 9,6 C 83 % 1010,9 hPa 0,0 mm 0,0 km/h (0 Bft) N 0 0 min 0 W/m 6,9 C 9,6 C 0,0 km/h (0 Bft) 99 %
20.05.2024 04:20 9,6 C 13,3 C 0,0 C 0,0 C 9,6 C 9,6 C 82 % 1010,8 hPa 0,0 mm 0,0 km/h (0 Bft) N 0 0 min 0 W/m 6,7 C 9,6 C 0,0 km/h (0 Bft) 99 %
20.05.2024 04:15 9,6 C 13,3 C 0,0 C 0,0 C 9,6 C 9,6 C 83 % 1010,8 hPa 0,0 mm 0,0 km/h (0 Bft) N 0 0 min 0 W/m 6,9 C 9,6 C 0,0 km/h (0 Bft) 100 %
20.05.2024 04:10 9,6 C 13,3 C 0,0 C 0,0 C 9,6 C 9,6 C 83 % 1010,7 hPa 0,0 mm 0,0 km/h (0 Bft) N 0 0 min 0 W/m 6,9 C 9,6 C 0,0 km/h (0 Bft) 98 %
20.05.2024 04:05 9,6 C 13,3 C 0,0 C 0,0 C 9,5 C 9,6 C 83 % 1010,7 hPa 0,0 mm 0,0 km/h (0 Bft) N 0 0 min 0 W/m 6,9 C 9,6 C 0,0 km/h (0 Bft) 97 %
20.05.2024 04:00 9,5 C 13,3 C 0,0 C 0,0 C 9,5 C 9,6 C 83 % 1010,8 hPa 0,0 mm 0,0 km/h (0 Bft) SO 135 0 min 0 W/m 6,8 C 9,5 C 3,2 km/h (1 Bft) 98 %
20.05.2024 03:55 9,5 C 13,3 C 0,0 C 0,0 C 9,4 C 9,5 C 83 % 1010,9 hPa 0,0 mm 1,6 km/h (1 Bft) SO 135 0 min 0 W/m 6,8 C 9,5 C 4,8 km/h (1 Bft) 97 %
20.05.2024 03:50 9,5 C 13,3 C 0,0 C 0,0 C 9,4 C 9,5 C 83 % 1011,0 hPa 0,0 mm 0,0 km/h (0 Bft) N 0 0 min 0 W/m 6,8 C 9,5 C 0,0 km/h (0 Bft) 99 %
20.05.2024 03:45 9,4 C 13,3 C 0,0 C 0,0 C 9,4 C 9,4 C 83 % 1011,0 hPa 0,0 mm 0,0 km/h (0 Bft) N 0 0 min 0 W/m 6,7 C 9,4 C 0,0 km/h (0 Bft) 100 %
20.05.2024 03:40 9,4 C 13,3 C 0,0 C 0,0 C 9,4 C 9,4 C 83 % 1011,1 hPa 0,0 mm 0,0 km/h (0 Bft) N 0 0 min 0 W/m 6,7 C 9,4 C 0,0 km/h (0 Bft) 100 %
20.05.2024 03:35 9,4 C 13,3 C 0,0 C 0,0 C 9,4 C 9,4 C 83 % 1011,1 hPa 0,0 mm 0,0 km/h (0 Bft) N 0 0 min 0 W/m 6,7 C 9,4 C 0,0 km/h (0 Bft) 99 %
20.05.2024 03:30 9,4 C 13,9 C 0,0 C 0,0 C 9,4 C 9,4 C 83 % 1011,2 hPa 0,0 mm 0,0 km/h (0 Bft) N 0 0 min 0 W/m 6,7 C 9,4 C 0,0 km/h (0 Bft) 100 %
20.05.2024 03:25 9,4 C 13,9 C 0,0 C 0,0 C 9,4 C 9,4 C 83 % 1011,3 hPa 0,0 mm 0,0 km/h (0 Bft) N 0 0 min 0 W/m 6,7 C 9,4 C 0,0 km/h (0 Bft) 100 %
20.05.2024 03:20 9,4 C 13,9 C 0,0 C 0,0 C 9,4 C 9,4 C 83 % 1011,3 hPa 0,0 mm 0,0 km/h (0 Bft) N 0 0 min 0 W/m 6,7 C 9,4 C 0,0 km/h (0 Bft) 100 %
20.05.2024 03:15 9,4 C 13,9 C 0,0 C 0,0 C 9,4 C 9,5 C 83 % 1011,3 hPa 0,0 mm 0,0 km/h (0 Bft) N 0 0 min 0 W/m 6,7 C 9,4 C 0,0 km/h (0 Bft) 99 %
20.05.2024 03:10 9,5 C 13,9 C 0,0 C 0,0 C 9,4 C 9,5 C 83 % 1011,4 hPa 0,0 mm 0,0 km/h (0 Bft) N 0 0 min 0 W/m 6,8 C 9,5 C 0,0 km/h (0 Bft) 100 %
20.05.2024 03:05 9,5 C 13,9 C 0,0 C 0,0 C 9,5 C 9,6 C 83 % 1011,4 hPa 0,0 mm 0,0 km/h (0 Bft) N 0 0 min 0 W/m 6,8 C 9,5 C 0,0 km/h (0 Bft) 97 %
20.05.2024 03:00 9,6 C 13,9 C 0,0 C 0,0 C 9,5 C 9,6 C 83 % 1011,4 hPa 0,0 mm 0,0 km/h (0 Bft) N 0 0 min 0 W/m 6,9 C 9,6 C 0,0 km/h (0 Bft) 98 %
20.05.2024 02:55 9,6 C 13,9 C 0,0 C 0,0 C 9,5 C 9,6 C 83 % 1011,5 hPa 0,0 mm 0,0 km/h (0 Bft) N 0 0 min 0 W/m 6,9 C 9,6 C 0,0 km/h (0 Bft) 97 %
20.05.2024 02:50 9,5 C 13,9 C 0,0 C 0,0 C 9,5 C 9,5 C 83 % 1011,5 hPa 0,0 mm 0,0 km/h (0 Bft) N 0 0 min 0 W/m 6,8 C 9,5 C 0,0 km/h (0 Bft) 96 %
20.05.2024 02:45 9,5 C 13,9 C 0,0 C 0,0 C 9,5 C 9,5 C 83 % 1011,5 hPa 0,0 mm 0,0 km/h (0 Bft) N 0 0 min 0 W/m 6,8 C 9,5 C 0,0 km/h (0 Bft) 93 %
20.05.2024 02:40 9,5 C 13,9 C 0,0 C 0,0 C 9,5 C 9,5 C 83 % 1011,4 hPa 0,0 mm 0,0 km/h (0 Bft) N 0 0 min 0 W/m 6,8 C 9,5 C 0,0 km/h (0 Bft) 94 %
20.05.2024 02:35 9,5 C 13,9 C 0,0 C 0,0 C 9,5 C 9,6 C 83 % 1011,5 hPa 0,0 mm 0,0 km/h (0 Bft) N 0 0 min 0 W/m 6,8 C 9,5 C 0,0 km/h (0 Bft) 99 %
20.05.2024 02:30 9,6 C 13,9 C 0,0 C 0,0 C 9,6 C 9,6 C 83 % 1011,5 hPa 0,0 mm 0,0 km/h (0 Bft) N 0 0 min 0 W/m 6,9 C 9,6 C 0,0 km/h (0 Bft) 100 %
20.05.2024 02:25 9,6 C 13,9 C 0,0 C 0,0 C 9,6 C 9,7 C 83 % 1011,5 hPa 0,0 mm 0,0 km/h (0 Bft) N 0 0 min 0 W/m 6,9 C 9,6 C 0,0 km/h (0 Bft) 100 %
20.05.2024 02:20 9,7 C 13,9 C 0,0 C 0,0 C 9,7 C 9,7 C 83 % 1011,4 hPa 0,0 mm 0,0 km/h (0 Bft) N 0 0 min 0 W/m 7,0 C 9,7 C 0,0 km/h (0 Bft) 100 %
20.05.2024 02:15 9,7 C 13,9 C 0,0 C 0,0 C 9,7 C 9,7 C 83 % 1011,4 hPa 0,0 mm 0,0 km/h (0 Bft) N 0 0 min 0 W/m 7,0 C 9,7 C 0,0 km/h (0 Bft) 100 %
20.05.2024 02:10 9,7 C 14,4 C 0,0 C 0,0 C 9,7 C 9,8 C 83 % 1011,5 hPa 0,0 mm 0,0 km/h (0 Bft) N 0 0 min 0 W/m 7,0 C 9,7 C 0,0 km/h (0 Bft) 99 %
20.05.2024 02:05 9,8 C 14,4 C 0,0 C 0,0 C 9,8 C 9,8 C 83 % 1011,4 hPa 0,0 mm 0,0 km/h (0 Bft) N 0 0 min 0 W/m 7,1 C 9,8 C 0,0 km/h (0 Bft) 98 %
20.05.2024 02:00 9,8 C 13,9 C 0,0 C 0,0 C 9,8 C 9,9 C 83 % 1011,4 hPa 0,0 mm 0,0 km/h (0 Bft) N 0 0 min 0 W/m 7,1 C 9,8 C 0,0 km/h (0 Bft) 96 %
20.05.2024 01:55 9,8 C 14,4 C 0,0 C 0,0 C 9,8 C 9,9 C 83 % 1011,5 hPa 0,0 mm 0,0 km/h (0 Bft) N 0 0 min 0 W/m 7,1 C 9,8 C 0,0 km/h (0 Bft) 96 %
20.05.2024 01:50 9,8 C 13,9 C 0,0 C 0,0 C 9,8 C 9,8 C 82 % 1011,6 hPa 0,0 mm 0,0 km/h (0 Bft) N 0 0 min 0 W/m 6,9 C 9,8 C 0,0 km/h (0 Bft) 98 %
20.05.2024 01:45 9,8 C 14,4 C 0,0 C 0,0 C 9,8 C 9,8 C 82 % 1011,7 hPa 0,0 mm 0,0 km/h (0 Bft) N 0 0 min 0 W/m 6,9 C 9,8 C 0,0 km/h (0 Bft) 100 %
20.05.2024 01:40 9,8 C 14,4 C 0,0 C 0,0 C 9,8 C 9,9 C 82 % 1011,7 hPa 0,0 mm 0,0 km/h (0 Bft) N 0 0 min 0 W/m 6,9 C 9,8 C 0,0 km/h (0 Bft) 99 %
20.05.2024 01:35 9,9 C 14,4 C 0,0 C 0,0 C 9,9 C 9,9 C 82 % 1011,6 hPa 0,0 mm 0,0 km/h (0 Bft) N 0 0 min 0 W/m 7,0 C 9,9 C 0,0 km/h (0 Bft) 99 %
20.05.2024 01:30 9,9 C 14,4 C 0,0 C 0,0 C 9,9 C 10,0 C 82 % 1011,7 hPa 0,0 mm 0,0 km/h (0 Bft) N 0 0 min 0 W/m 7,0 C 9,9 C 0,0 km/h (0 Bft) 100 %
20.05.2024 01:25 10,0 C 14,4 C 0,0 C 0,0 C 9,9 C 10,0 C 82 % 1011,7 hPa 0,0 mm 0,0 km/h (0 Bft) N 0 0 min 0 W/m 7,1 C 10,0 C 0,0 km/h (0 Bft) 100 %
20.05.2024 01:20 9,9 C 14,4 C 0,0 C 0,0 C 9,9 C 9,9 C 82 % 1011,7 hPa 0,0 mm 0,0 km/h (0 Bft) N 0 0 min 0 W/m 7,0 C 9,9 C 0,0 km/h (0 Bft) 100 %
20.05.2024 01:15 9,9 C 14,4 C 0,0 C 0,0 C 9,9 C 9,9 C 82 % 1011,7 hPa 0,0 mm 0,0 km/h (0 Bft) N 0 0 min 0 W/m 7,0 C 9,9 C 0,0 km/h (0 Bft) 100 %
20.05.2024 01:10 9,9 C 14,4 C 0,0 C 0,0 C 9,9 C 9,9 C 82 % 1011,7 hPa 0,0 mm 0,0 km/h (0 Bft) N 0 0 min 0 W/m 7,0 C 9,9 C 0,0 km/h (0 Bft) 99 %
20.05.2024 01:05 9,9 C 14,4 C 0,0 C 0,0 C 9,9 C 9,9 C 82 % 1011,7 hPa 0,0 mm 0,0 km/h (0 Bft) N 0 0 min 0 W/m 7,0 C 9,9 C 0,0 km/h (0 Bft) 97 %
20.05.2024 01:00 9,9 C 14,4 C 0,0 C 0,0 C 9,9 C 10,0 C 82 % 1012,1 hPa 0,0 mm 0,0 km/h (0 Bft) N 0 0 min 0 W/m 7,0 C 9,9 C 0,0 km/h (0 Bft) 97 %
20.05.2024 00:55 10,0 C 14,4 C 0,0 C 0,0 C 10,0 C 10,1 C 82 % 1012,1 hPa 0,0 mm 0,0 km/h (0 Bft) N 0 0 min 0 W/m 7,1 C 10,0 C 0,0 km/h (0 Bft) 97 %
20.05.2024 00:50 10,1 C 14,4 C 0,0 C 0,0 C 10,1 C 10,1 C 82 % 1012,1 hPa 0,0 mm 0,0 km/h (0 Bft) N 0 0 min 0 W/m 7,2 C 10,1 C 0,0 km/h (0 Bft) 98 %
20.05.2024 00:45 10,1 C 14,4 C 0,0 C 0,0 C 10,1 C 10,1 C 82 % 1012,0 hPa 0,0 mm 0,0 km/h (0 Bft) N 0 0 min 0 W/m 7,2 C 10,1 C 0,0 km/h (0 Bft) 98 %
20.05.2024 00:40 10,1 C 14,4 C 0,0 C 0,0 C 10,1 C 10,1 C 82 % 1011,9 hPa 0,0 mm 0,0 km/h (0 Bft) N 0 0 min 0 W/m 7,2 C 10,1 C 0,0 km/h (0 Bft) 100 %
20.05.2024 00:35 10,1 C 14,4 C 0,0 C 0,0 C 10,1 C 10,1 C 82 % 1011,9 hPa 0,0 mm 0,0 km/h (0 Bft) N 0 0 min 0 W/m 7,2 C 10,1 C 0,0 km/h (0 Bft) 98 %
20.05.2024 00:30 10,1 C 14,4 C 0,0 C 0,0 C 10,1 C 10,1 C 83 % 1012,0 hPa 0,0 mm 0,0 km/h (0 Bft) N 0 0 min 0 W/m 7,3 C 10,1 C 0,0 km/h (0 Bft) 99 %
20.05.2024 00:25 10,1 C 14,4 C 0,0 C 0,0 C 10,1 C 10,1 C 83 % 1012,1 hPa 0,0 mm 0,0 km/h (0 Bft) N 0 0 min 0 W/m 7,3 C 10,1 C 0,0 km/h (0 Bft) 100 %
20.05.2024 00:20 10,1 C 14,4 C 0,0 C 0,0 C 10,1 C 10,1 C 83 % 1012,1 hPa 0,0 mm 0,0 km/h (0 Bft) N 0 0 min 0 W/m 7,3 C 10,1 C 0,0 km/h (0 Bft) 93 %
20.05.2024 00:15 10,1 C 14,4 C 0,0 C 0,0 C 10,1 C 10,1 C 83 % 1012,1 hPa 0,0 mm 1,6 km/h (1 Bft) SO 135 0 min 0 W/m 7,3 C 10,1 C 4,8 km/h (1 Bft) 93 %
20.05.2024 00:10 10,1 C 15,0 C 0,0 C 0,0 C 10,1 C 10,1 C 83 % 1012,1 hPa 0,0 mm 3,2 km/h (1 Bft) SO 135 0 min 0 W/m 7,3 C 10,1 C 4,8 km/h (1 Bft) 96 %
20.05.2024 00:05 10,1 C 15,0 C 0,0 C 0,0 C 10,1 C 10,1 C 82 % 1012,1 hPa 0,0 mm 0,0 km/h (0 Bft) SO 135 0 min 0 W/m 7,2 C 10,1 C 3,2 km/h (1 Bft) 95 %
20.05.2024 00:00 10,1 C 15,0 C 0,0 C 0,0 C 10,1 C 10,2 C 82 % 1012,2 hPa 0,0 mm 1,6 km/h (1 Bft) SO 135 0 min 0 W/m 7,2 C 10,1 C 6,4 km/h (2 Bft) 97 %
_ Min-Zeit 04:50 03:35 00:00 00:00 04:50 04:55 20:05 20:05 - 00:05 - - - - 04:50 04:50 00:20 05:05
Minimum _ 9,3 C 13,3 C 0,0 C 0,0 C 9,3 C 9,3 C 62 % 1007,1 hPa - 0,0 km/h (0 Bft) - - - - 6,6 C 9,3 C 0,0 km/h (0 Bft) 90 %
_ Max-Zeit 12:50 13:45 00:00 00:00 13:50 12:50 06:10 00:00 14:55 20:45 - - 07:30 12:50 18:15 13:50 20:45 00:25
Maximum _ 18,2 C 21,1 C 0,0 C 0,0 C 18,1 C 18,2 C 84 % 1012,2 hPa 0,6 mm 15,1 km/h
N-NW (3 Bft)
- - 5 min 1083 W/m 14,4 C 18,2 C 29,0 km/h
N-NW (5 Bft)
100 %
Durchschnitt _ 13,7 C 17,1 C 0,0 C 0,0 C 13,6 C 13,7 C 78 % 1010,1 hPa #2,6 mm 1,0 km/h (0 Bft) N - #5:45 h 327 W/m 9,8 C 13,6 C 3,4 km/h (1 Bft) 98 %
Elztal-Wetter.